createdAt,value
2019-03-21T00:00:51.292Z,82.90
2019-03-21T00:03:22.397Z,81.90
2019-03-21T00:05:53.163Z,81.80
2019-03-21T00:08:23.969Z,83.90
2019-03-21T00:11:29.882Z,84.00
2019-03-21T00:14:07.251Z,82.40
2019-03-21T00:16:36.394Z,84.10
2019-03-21T00:19:07.155Z,85.90
2019-03-21T00:21:37.920Z,85.40
2019-03-21T00:24:26.814Z,87.00
2019-03-21T00:26:57.638Z,87.20
2019-03-21T00:29:28.729Z,89.40
2019-03-21T00:31:59.585Z,91.70
2019-03-21T00:34:30.466Z,92.80
2019-03-21T00:37:01.220Z,92.30
2019-03-21T00:39:33.130Z,91.70
2019-03-21T00:42:04.109Z,92.80
2019-03-21T00:44:34.901Z,93.30
2019-03-21T00:47:05.682Z,94.90
2019-03-21T00:49:36.466Z,95.80
2019-03-21T00:52:07.242Z,94.20
2019-03-21T00:54:38.321Z,93.60
2019-03-21T00:57:09.327Z,92.90
2019-03-21T00:59:40.203Z,93.20
2019-03-21T01:02:11.036Z,93.10
2019-03-21T01:04:41.874Z,91.50
2019-03-21T01:07:12.696Z,91.10
2019-03-21T01:09:43.455Z,92.50
2019-03-21T01:12:14.410Z,93.50
2019-03-21T01:14:45.466Z,93.70
2019-03-21T01:17:16.437Z,93.20
2019-03-21T01:19:47.213Z,94.70
2019-03-21T01:22:17.984Z,95.30
2019-03-21T01:24:48.764Z,94.60
2019-03-21T01:27:19.525Z,96.10
2019-03-21T01:29:50.274Z,98.90
2019-03-21T01:32:21.128Z,99.90
2019-03-21T01:34:51.930Z,99.50
2019-03-21T01:37:22.778Z,97.10
2019-03-21T01:39:53.540Z,94.00
2019-03-21T01:42:24.409Z,93.50
2019-03-21T01:44:55.210Z,93.30
2019-03-21T01:47:26.064Z,92.90
2019-03-21T01:49:56.897Z,92.50
2019-03-21T01:52:27.730Z,92.50
2019-03-21T01:54:58.583Z,92.40
2019-03-21T01:57:29.331Z,92.60
2019-03-21T02:00:00.161Z,92.70
2019-03-21T02:02:31.528Z,92.60
2019-03-21T02:05:02.398Z,92.40
2019-03-21T02:07:33.382Z,92.60
2019-03-21T05:00:44.784Z,99.90
2019-03-21T05:03:15.707Z,99.90
2019-03-21T05:05:46.591Z,99.90
2019-03-21T05:08:17.448Z,99.90
2019-03-21T05:10:48.194Z,99.90
2019-03-21T05:13:19.055Z,99.90
2019-03-21T05:15:49.859Z,99.90
2019-03-21T05:18:24.112Z,99.90
2019-03-21T05:20:54.886Z,99.90
2019-03-21T05:23:25.797Z,99.90
2019-03-21T05:25:56.535Z,99.90
2019-03-21T05:28:27.368Z,99.90
2019-03-21T05:31:01.474Z,99.90
2019-03-21T05:33:32.282Z,99.90
2019-03-21T05:36:03.111Z,99.90
2019-03-21T05:38:34.080Z,99.90
2019-03-21T05:41:04.927Z,99.90
2019-03-21T05:43:39.772Z,99.90
2019-03-21T05:46:10.659Z,99.90
2019-03-21T05:48:41.538Z,99.90
2019-03-21T05:51:12.326Z,99.90
2019-03-21T05:53:43.242Z,99.90
2019-03-21T05:56:14.138Z,99.90
2019-03-21T05:58:44.898Z,99.90
2019-03-21T06:01:15.702Z,99.90
2019-03-21T06:03:49.936Z,99.90
2019-03-21T06:06:37.385Z,99.90
2019-03-21T06:09:09.806Z,99.90
2019-03-21T06:11:42.149Z,99.90
2019-03-21T06:14:12.958Z,99.90
2019-03-21T06:16:43.937Z,99.90
2019-03-21T06:19:41.711Z,99.90
2019-03-21T06:22:43.703Z,99.90
2019-03-21T06:25:37.756Z,99.90
2019-03-21T06:28:08.812Z,99.90
2019-03-21T06:30:39.635Z,99.90
2019-03-21T06:33:10.543Z,99.90
2019-03-21T06:35:41.335Z,99.90
2019-03-21T06:38:12.118Z,99.90
2019-03-21T06:40:43.032Z,99.90
2019-03-21T06:43:13.980Z,99.90
2019-03-21T06:45:48.225Z,99.90
2019-03-21T06:48:17.426Z,99.90
2019-03-21T06:50:48.234Z,99.90
2019-03-21T06:53:19.202Z,99.90
2019-03-21T06:55:50.042Z,99.90
2019-03-21T06:58:20.858Z,99.90
2019-03-21T07:00:51.692Z,99.90
2019-03-21T07:03:22.490Z,99.90
2019-03-21T07:05:53.323Z,99.90
2019-03-21T07:08:24.407Z,99.90
2019-03-21T07:10:58.218Z,99.90
2019-03-21T07:13:28.169Z,99.90
2019-03-21T07:15:59.012Z,99.90
2019-03-21T07:18:29.884Z,99.60
2019-03-21T07:21:01.343Z,98.70
2019-03-21T07:23:32.561Z,99.20
2019-03-21T07:26:03.579Z,98.50
2019-03-21T07:28:34.475Z,99.00
2019-03-21T07:31:07.359Z,98.80
2019-03-21T07:33:38.122Z,98.80
2019-03-21T07:36:09.078Z,98.20
2019-03-21T07:38:39.899Z,97.90
2019-03-21T07:41:10.694Z,97.90
2019-03-21T07:43:41.463Z,97.20
2019-03-21T07:46:12.236Z,98.20
2019-03-21T07:48:43.269Z,98.40
2019-03-21T07:51:14.141Z,98.40
2019-03-21T07:53:44.943Z,97.70
2019-03-21T07:56:15.930Z,96.70
2019-03-21T07:58:46.831Z,96.20
2019-03-21T08:01:17.748Z,95.60
2019-03-21T08:03:48.593Z,95.20
2019-03-21T08:06:19.393Z,95.00
2019-03-21T08:08:50.168Z,95.20
2019-03-21T08:11:20.938Z,94.70
2019-03-21T08:13:51.855Z,93.60
2019-03-21T08:16:22.743Z,93.60
2019-03-21T08:18:53.874Z,92.60
2019-03-21T08:21:24.673Z,92.80
2019-03-21T08:23:55.453Z,92.80
2019-03-21T08:26:26.242Z,92.90
2019-03-21T08:28:57.130Z,92.20
2019-03-21T08:31:28.036Z,91.80
2019-03-21T08:33:58.834Z,91.70
2019-03-21T08:36:29.662Z,91.70
2019-03-21T08:39:00.512Z,90.80
2019-03-21T08:41:31.336Z,88.80
2019-03-21T08:44:02.155Z,88.80
2019-03-21T08:46:33.098Z,87.20
2019-03-21T08:49:03.955Z,87.20
2019-03-21T08:51:34.874Z,85.60
2019-03-21T08:54:05.878Z,85.10
2019-03-21T08:56:36.884Z,83.80
2019-03-21T08:59:07.885Z,83.50
2019-03-21T09:01:38.687Z,82.50
2019-03-21T09:04:09.601Z,80.30
2019-03-21T09:06:43.627Z,78.80
2019-03-21T09:09:14.378Z,79.00
2019-03-21T09:11:45.191Z,78.10
2019-03-21T09:14:15.956Z,76.60
2019-03-21T09:16:46.852Z,75.30
2019-03-21T09:19:17.868Z,75.90
2019-03-21T09:21:48.868Z,75.90
2019-03-21T09:24:19.738Z,75.00
2019-03-21T09:26:51.618Z,74.40
2019-03-21T09:29:22.638Z,73.20
2019-03-21T09:31:53.883Z,72.40
2019-03-21T09:34:24.757Z,71.80
2019-03-21T09:36:55.795Z,70.50
2019-03-21T09:39:26.683Z,69.10
2019-03-21T09:41:57.746Z,68.60
2019-03-21T09:44:29.232Z,67.80
2019-03-21T09:47:00.162Z,67.10
2019-03-21T09:49:31.083Z,66.70
2019-03-21T09:52:01.975Z,67.00
2019-03-21T09:54:32.794Z,66.60
2019-03-21T09:57:03.918Z,66.10
2019-03-21T09:59:34.717Z,64.50
2019-03-21T10:02:05.547Z,60.80
2019-03-21T10:04:36.478Z,59.10
2019-03-21T10:07:07.294Z,58.40
2019-03-21T10:09:38.247Z,58.80
2019-03-21T10:12:09.440Z,58.10
2019-03-21T10:14:41.421Z,57.50
2019-03-21T10:17:12.323Z,57.70
2019-03-21T10:19:43.215Z,56.60
2019-03-21T10:22:14.379Z,56.10
2019-03-21T10:24:45.480Z,55.10
2019-03-21T10:27:16.576Z,54.50
2019-03-21T10:29:47.561Z,54.80
2019-03-21T10:32:18.382Z,52.90
2019-03-21T10:34:49.156Z,52.40
2019-03-21T10:37:20.001Z,53.60
2019-03-21T10:39:50.883Z,53.40
2019-03-21T10:42:21.865Z,53.30
2019-03-21T10:44:52.877Z,53.20
2019-03-21T10:47:23.713Z,52.60
2019-03-21T10:49:54.498Z,53.10
2019-03-21T10:52:25.337Z,53.60
2019-03-21T10:54:56.095Z,53.40
2019-03-21T10:57:26.851Z,53.60
2019-03-21T10:59:57.719Z,53.40
2019-03-21T11:02:28.526Z,54.40
2019-03-21T11:04:59.297Z,54.00
2019-03-21T11:07:30.119Z,54.30
2019-03-21T11:10:01.225Z,54.70
2019-03-21T11:12:32.498Z,55.90
2019-03-21T11:15:03.319Z,55.90
2019-03-21T11:17:34.407Z,55.40
2019-03-21T11:20:05.487Z,65.30
2019-03-21T11:22:36.311Z,61.90
2019-03-21T11:25:07.238Z,59.00
2019-03-21T11:27:38.250Z,59.00
2019-03-21T11:30:15.972Z,59.80
2019-03-21T11:32:41.963Z,60.00
2019-03-21T11:35:12.791Z,59.20
2019-03-21T11:37:43.813Z,59.10
2019-03-21T11:40:14.647Z,58.70
2019-03-21T11:42:45.504Z,56.70
2019-03-21T11:45:16.546Z,58.50
2019-03-21T11:47:47.374Z,60.10
2019-03-21T11:50:18.432Z,57.90
2019-03-21T11:52:49.374Z,57.40
2019-03-21T11:55:20.376Z,56.70
2019-03-21T11:57:51.370Z,57.50
2019-03-21T12:00:22.142Z,59.30
2019-03-21T12:02:53.017Z,56.80
2019-03-21T12:05:24.059Z,57.10
2019-03-21T12:07:54.867Z,56.50
2019-03-21T12:10:25.946Z,55.90
2019-03-21T12:12:56.890Z,54.00
2019-03-21T12:15:27.799Z,55.60
2019-03-21T12:17:58.668Z,55.10
2019-03-21T12:20:36.117Z,57.20
2019-03-21T12:23:07.091Z,55.40
2019-03-21T12:25:37.955Z,56.10
2019-03-21T12:28:09.029Z,57.50
2019-03-21T12:30:43.467Z,54.00
2019-03-21T12:33:14.644Z,55.20
2019-03-21T12:35:45.505Z,54.00
2019-03-21T12:38:16.322Z,54.00
2019-03-21T12:40:47.111Z,55.10
2019-03-21T12:43:17.846Z,54.40
2019-03-21T12:45:48.719Z,54.60
2019-03-21T12:48:19.738Z,54.40
2019-03-21T12:50:50.685Z,53.20
2019-03-21T12:53:21.566Z,52.80
2019-03-21T12:55:52.439Z,54.10
2019-03-21T12:58:23.232Z,53.40
2019-03-21T13:00:54.161Z,54.00
2019-03-21T13:03:24.993Z,53.00
2019-03-21T13:05:55.896Z,52.40
2019-03-21T13:08:33.628Z,51.50
2019-03-21T13:11:00.890Z,50.60
2019-03-21T13:13:32.037Z,49.70
2019-03-21T13:16:02.866Z,51.60
2019-03-21T13:18:33.634Z,53.00
2019-03-21T13:21:04.415Z,51.50
2019-03-21T13:23:35.239Z,51.80
2019-03-21T13:26:06.183Z,52.40
2019-03-21T13:28:37.111Z,51.40
2019-03-21T13:31:07.972Z,50.80
2019-03-21T13:33:38.902Z,48.10
2019-03-21T13:36:09.963Z,50.40
2019-03-21T13:38:40.779Z,51.70
2019-03-21T13:41:12.751Z,51.30
2019-03-21T13:43:43.673Z,50.60
2019-03-21T13:46:14.484Z,50.80
2019-03-21T13:48:45.398Z,50.20
2019-03-21T13:51:16.435Z,52.00
2019-03-21T13:53:47.357Z,49.30
2019-03-21T13:56:18.414Z,48.60
2019-03-21T13:58:50.758Z,48.40
2019-03-21T14:01:21.702Z,47.10
2019-03-21T14:03:52.618Z,45.70
2019-03-21T14:06:23.601Z,45.40
2019-03-21T14:08:54.430Z,45.20
2019-03-21T14:11:25.376Z,44.20
2019-03-21T14:13:56.323Z,42.90
2019-03-21T14:16:27.415Z,42.70
2019-03-21T14:18:58.190Z,43.50
2019-03-21T14:21:29.139Z,42.10
2019-03-21T14:23:59.921Z,41.10
2019-03-21T14:26:30.882Z,41.10
2019-03-21T14:29:12.236Z,39.10
2019-03-21T14:31:34.225Z,40.30
2019-03-21T14:34:05.123Z,40.20
2019-03-21T14:36:36.257Z,40.00
2019-03-21T14:39:08.043Z,39.80
2019-03-21T14:41:38.937Z,40.30
2019-03-21T14:44:12.877Z,38.70
2019-03-21T14:46:43.741Z,38.80
2019-03-21T14:49:14.594Z,37.80
2019-03-21T14:51:45.637Z,38.00
2019-03-21T14:54:16.595Z,38.00
2019-03-21T14:59:18.286Z,37.50
2019-03-21T15:01:49.346Z,34.50
2019-03-21T15:04:20.151Z,34.20
2019-03-21T15:06:51.110Z,32.60
2019-03-21T15:09:21.912Z,32.70
2019-03-21T15:11:52.935Z,32.80
2019-03-21T15:14:23.747Z,32.40
2019-03-21T15:16:54.596Z,33.10
2019-03-21T15:19:25.346Z,33.50
2019-03-21T15:21:56.194Z,34.20
2019-03-21T15:24:27.054Z,34.70
2019-03-21T15:26:57.794Z,34.60
2019-03-21T15:29:28.592Z,35.50
2019-03-21T15:31:59.390Z,34.80
2019-03-21T15:34:30.151Z,34.90
2019-03-21T15:37:00.884Z,35.20
2019-03-21T15:39:31.632Z,35.60
2019-03-21T15:42:02.378Z,36.90
2019-03-21T15:44:33.162Z,36.70
2019-03-21T15:47:04.009Z,37.60
2019-03-21T15:49:35.662Z,38.60
2019-03-21T15:52:06.418Z,38.70
2019-03-21T15:54:37.208Z,38.80
2019-03-21T15:57:08.154Z,38.80
2019-03-21T15:59:39.280Z,38.90
2019-03-21T16:02:11.358Z,39.10
2019-03-21T16:04:42.290Z,38.90
2019-03-21T16:07:13.239Z,39.20
2019-03-21T16:09:44.162Z,39.50
2019-03-21T16:12:15.019Z,39.60
2019-03-21T16:14:46.041Z,40.00
2019-03-21T16:17:17.019Z,40.40
2019-03-21T16:19:48.033Z,42.00
2019-03-21T16:22:18.946Z,42.60
2019-03-21T16:24:50.044Z,42.00
2019-03-21T16:27:20.933Z,41.70
2019-03-21T16:29:51.832Z,42.00
2019-03-21T16:32:22.836Z,42.30
2019-03-21T16:34:53.629Z,43.10
2019-03-21T16:37:24.666Z,42.20
2019-03-21T16:39:55.857Z,42.10
2019-03-21T16:42:26.775Z,42.70
2019-03-21T16:44:57.727Z,42.70
2019-03-21T16:47:28.654Z,42.00
2019-03-21T16:49:59.952Z,42.70
2019-03-21T16:52:30.796Z,42.10
2019-03-21T16:55:02.608Z,41.30
2019-03-21T16:57:33.926Z,41.00
2019-03-21T17:00:09.722Z,41.00
2019-03-21T17:02:40.719Z,41.00
2019-03-21T17:05:12.120Z,41.20
2019-03-21T17:07:43.156Z,41.60
2019-03-21T17:10:14.367Z,41.80
2019-03-21T17:12:45.647Z,41.80
2019-03-21T17:15:16.524Z,42.10
2019-03-21T17:17:47.293Z,42.60
2019-03-21T17:20:18.134Z,42.50
2019-03-21T17:22:48.963Z,42.40
2019-03-21T17:25:19.865Z,42.80
2019-03-21T17:27:50.627Z,42.60
2019-03-21T17:30:21.411Z,43.40
2019-03-21T17:32:52.172Z,42.90
2019-03-21T17:35:23.019Z,42.80
2019-03-21T17:37:53.871Z,42.70
2019-03-21T17:40:24.772Z,42.80
2019-03-21T17:42:55.647Z,42.90
2019-03-21T17:45:26.567Z,42.80
2019-03-21T17:47:57.598Z,43.10
2019-03-21T17:50:28.418Z,42.80
2019-03-21T17:52:59.294Z,42.30
2019-03-21T17:55:30.249Z,42.50
2019-03-21T18:38:02.362Z,41.80
2019-03-21T18:40:33.330Z,43.20
2019-03-21T18:43:04.356Z,43.40
2019-03-21T18:45:35.471Z,43.60
2019-03-21T18:48:06.357Z,44.00
2019-03-21T18:50:37.229Z,44.60
2019-03-21T18:53:08.121Z,44.30
2019-03-21T18:55:38.990Z,44.10
2019-03-21T18:58:09.827Z,44.30
2019-03-21T19:00:42.962Z,44.30
2019-03-21T19:03:13.838Z,44.50
2019-03-21T19:05:44.771Z,44.50
2019-03-21T19:08:15.599Z,44.60
2019-03-21T19:10:46.620Z,44.80
2019-03-21T19:13:17.905Z,44.90
2019-03-21T19:15:48.695Z,44.90
2019-03-21T19:18:19.694Z,45.70
2019-03-21T19:20:50.663Z,45.00
2019-03-21T19:23:21.780Z,45.00
2019-03-21T19:25:52.881Z,45.00
2019-03-21T19:28:23.734Z,45.20
2019-03-21T19:30:54.689Z,45.30
2019-03-21T19:33:25.529Z,45.60
2019-03-21T19:35:56.406Z,45.60
2019-03-21T19:38:27.495Z,45.50
2019-03-21T19:40:58.499Z,45.60
2019-03-21T19:43:29.369Z,45.60
2019-03-21T19:46:00.357Z,45.80
2019-03-21T19:48:31.327Z,46.10
2019-03-21T19:51:02.354Z,46.20
2019-03-21T19:53:33.333Z,46.50
2019-03-21T19:56:08.766Z,46.70
2019-03-21T19:58:37.671Z,46.90
2019-03-21T20:01:08.620Z,46.70
2019-03-21T20:03:39.556Z,46.90
2019-03-21T20:06:10.377Z,47.00
2019-03-21T20:08:41.188Z,47.40
2019-03-21T20:11:12.260Z,47.50
2019-03-21T20:13:43.095Z,47.60
2019-03-21T20:16:13.955Z,48.00
2019-03-21T20:18:44.847Z,48.00
2019-03-21T20:21:15.903Z,48.20
2019-03-21T20:23:46.771Z,48.30
2019-03-21T20:26:17.719Z,48.40
2019-03-21T20:28:48.634Z,48.50
2019-03-21T20:31:19.683Z,48.90
2019-03-21T20:33:50.555Z,49.00
2019-03-21T20:36:21.887Z,49.00
2019-03-21T20:38:52.766Z,49.40
2019-03-21T20:41:23.576Z,49.90
2019-03-21T20:43:54.427Z,50.30
2019-03-21T20:46:25.311Z,51.00
2019-03-21T20:48:54.398Z,50.80
2019-03-21T20:51:25.194Z,51.00
2019-03-21T20:53:56.158Z,50.90
2019-03-21T20:56:27.257Z,51.20
2019-03-21T20:58:58.099Z,51.20
2019-03-21T21:01:28.956Z,51.50
2019-03-21T21:03:59.765Z,51.60
2019-03-21T21:06:31.863Z,51.30
2019-03-21T21:09:03.238Z,51.40
2019-03-21T21:11:35.175Z,51.90
2019-03-21T21:14:06.248Z,52.10
2019-03-21T21:16:37.086Z,52.00
2019-03-21T21:19:07.887Z,52.20
2019-03-21T21:21:38.799Z,52.80
2019-03-21T21:24:09.615Z,52.80
2019-03-21T21:26:40.585Z,52.70
2019-03-21T21:29:11.391Z,53.00
2019-03-21T21:31:42.288Z,53.40
2019-03-21T21:34:13.267Z,53.40
2019-03-21T21:36:44.215Z,53.40
2019-03-21T21:39:16.194Z,53.50
2019-03-21T21:41:47.123Z,53.80
2019-03-21T21:44:17.907Z,54.10
2019-03-21T21:46:48.771Z,54.00
2019-03-21T21:49:19.753Z,54.10
2019-03-21T21:51:50.900Z,54.30
2019-03-21T21:54:21.955Z,54.50
2019-03-21T21:56:52.932Z,54.50
2019-03-21T21:59:23.829Z,54.50
2019-03-21T22:01:54.632Z,54.60
2019-03-21T22:04:25.438Z,54.80
2019-03-21T22:06:56.288Z,55.20
2019-03-21T22:09:27.187Z,55.40
2019-03-21T22:11:58.095Z,55.60
2019-03-21T22:14:28.947Z,55.30
2019-03-21T22:17:00.009Z,55.60
2019-03-21T22:19:30.794Z,55.30
2019-03-21T22:22:01.614Z,55.30
2019-03-21T22:24:32.470Z,55.50
2019-03-21T22:27:03.290Z,55.50
2019-03-21T22:29:34.655Z,55.60
2019-03-21T22:32:05.462Z,55.90
2019-03-21T22:34:36.525Z,56.20
2019-03-21T22:37:09.576Z,56.00
2019-03-21T22:39:40.396Z,56.10
2019-03-21T22:42:11.164Z,56.30
2019-03-21T22:44:42.470Z,57.10
2019-03-21T22:47:13.384Z,57.10
2019-03-21T22:49:44.541Z,56.70
2019-03-21T22:52:15.321Z,56.70
2019-03-21T22:54:46.188Z,56.90
2019-03-21T22:57:17.053Z,56.90
2019-03-21T22:59:48.245Z,58.00
2019-03-21T23:02:19.108Z,59.60
2019-03-21T23:04:49.965Z,60.80
2019-03-21T23:07:23.555Z,62.80
2019-03-21T23:09:54.548Z,62.40
